Time;durP1;ratioP1;P1;durP2;ratioP2;P2;SDS_P1;SDS_P2;PMS_P1;PMS_P2;Temp;Humidity;BMP_temperature;BMP_pressure;BME280_temperature;BME280_humidity;BME280_pressure;Samples;Min_cycle;Max_cycle;Signal;HPM_P1;HPM_P2
2022/08/06 00:00:06;;;;;;;5.93;2.10;;;16.50;99.90;;;;;;5035665;28;20923;-77
2022/08/06 00:02:33;;;;;;;3.00;2.20;;;16.50;99.90;;;;;;5034239;28;20446;-77
2022/08/06 00:05:02;;;;;;;4.40;2.40;;;16.50;99.90;;;;;;5034190;28;20449;-76
2022/08/06 00:07:30;;;;;;;6.57;2.30;;;16.50;99.90;;;;;;4979872;28;20510;-77
2022/08/06 00:09:57;;;;;;;3.30;2.30;;;16.40;99.90;;;;;;5037012;28;20480;-76
2022/08/06 00:12:23;;;;;;;5.10;2.50;;;16.40;99.90;;;;;;4967692;28;20456;-76
2022/08/06 00:14:50;;;;;;;3.07;2.13;;;16.30;99.90;;;;;;5028270;28;20499;-76
2022/08/06 00:17:18;;;;;;;2.90;2.50;;;16.20;99.90;;;;;;5034515;28;20461;-76
2022/08/06 00:19:45;;;;;;;2.43;2.30;;;16.20;99.90;;;;;;5027212;28;20987;-77
2022/08/06 00:22:11;;;;;;;2.80;2.13;;;16.20;99.90;;;;;;5033147;28;20528;-77
2022/08/06 00:24:39;;;;;;;2.40;1.80;;;16.10;99.90;;;;;;5039635;28;20432;-76
2022/08/06 00:27:06;;;;;;;4.83;2.43;;;16.10;99.90;;;;;;5033009;28;20464;-76
2022/08/06 00:29:33;;;;;;;2.40;2.20;;;16.00;99.90;;;;;;5034125;28;20928;-76
2022/08/06 00:31:59;;;;;;;2.50;2.30;;;16.00;99.90;;;;;;5038988;28;20532;-76
2022/08/06 00:34:26;;;;;;;2.83;2.30;;;16.00;99.90;;;;;;5049330;28;20428;-76
2022/08/06 00:36:52;;;;;;;2.73;2.50;;;15.90;99.90;;;;;;5032262;28;20963;-76
2022/08/06 00:39:19;;;;;;;2.40;2.20;;;15.90;99.90;;;;;;5033210;28;20484;-76
2022/08/06 00:41:48;;;;;;;2.87;2.03;;;15.80;99.90;;;;;;5026009;28;20470;-76
2022/08/06 00:44:15;;;;;;;3.47;2.00;;;15.70;99.90;;;;;;5039065;28;20503;-77
2022/08/06 00:46:42;;;;;;;2.93;2.13;;;15.70;99.90;;;;;;5040263;28;20454;-76
2022/08/06 00:49:09;;;;;;;2.73;2.40;;;15.70;99.90;;;;;;5038107;28;20453;-76
2022/08/06 00:51:36;;;;;;;3.17;2.20;;;15.60;99.90;;;;;;5041399;28;20470;-76
2022/08/06 00:54:03;;;;;;;2.00;1.90;;;15.60;99.90;;;;;;5045541;28;20977;-76
2022/08/06 00:56:29;;;;;;;4.90;2.10;;;15.60;99.90;;;;;;5040291;28;20511;-76
2022/08/06 00:58:57;;;;;;;3.20;2.10;;;15.50;99.90;;;;;;5033862;28;20474;-76
2022/08/06 01:01:24;;;;;;;1.90;1.80;;;15.50;99.90;;;;;;5033805;28;20477;-76
2022/08/06 01:03:51;;;;;;;2.23;2.00;;;15.50;99.90;;;;;;5033952;28;20576;-76
2022/08/06 01:06:17;;;;;;;2.73;1.87;;;15.50;99.90;;;;;;5047492;28;20507;-76
2022/08/06 01:08:44;;;;;;;2.13;1.90;;;15.50;99.90;;;;;;5049019;28;20549;-76
2022/08/06 01:11:11;;;;;;;2.87;1.93;;;15.50;99.90;;;;;;5036319;28;20500;-76
2022/08/06 01:13:37;;;;;;;6.63;2.60;;;15.50;99.90;;;;;;5041939;28;20488;-76
2022/08/06 01:16:11;;;;;;;2.63;1.93;;;15.50;99.90;;;;;;5042135;28;20448;-76
2022/08/06 01:18:44;;;;;;;2.20;2.00;;;15.40;99.90;;;;;;5041572;28;20938;-76
2022/08/06 01:21:23;;;;;;;2.70;2.20;;;15.30;99.90;;;;;;5037640;28;20477;-76
2022/08/06 01:24:12;;;;;;;5.20;2.30;;;15.40;99.90;;;;;;5042031;28;20444;-76
2022/08/06 01:26:46;;;;;;;4.20;2.40;;;15.30;99.90;;;;;;5051099;28;20665;-76
2022/08/06 01:29:21;;;;;;;5.87;2.20;;;15.30;99.90;;;;;;5050095;28;20506;-76
2022/08/06 01:31:52;;;;;;;2.63;2.43;;;15.20;99.90;;;;;;5031958;28;20539;-77
2022/08/06 01:34:23;;;;;;;2.70;2.33;;;15.20;99.90;;;;;;5041943;28;20491;-77
2022/08/06 01:36:54;;;;;;;3.13;2.10;;;15.20;99.90;;;;;;5032125;28;20449;-76
2022/08/06 01:39:23;;;;;;;3.03;2.20;;;15.10;99.90;;;;;;5031349;28;20507;-76
2022/08/06 01:41:52;;;;;;;9.63;2.50;;;15.10;99.90;;;;;;5034603;28;20491;-76
2022/08/06 01:44:26;;;;;;;2.77;2.40;;;15.00;99.90;;;;;;5044273;28;20905;-76
2022/08/06 01:46:57;;;;;;;2.53;2.10;;;15.00;99.90;;;;;;5024105;28;20487;-76
2022/08/06 01:49:27;;;;;;;2.53;2.33;;;14.90;99.90;;;;;;5032909;28;20449;-76
2022/08/06 01:51:57;;;;;;;2.20;2.00;;;14.80;99.90;;;;;;5048071;28;20545;-76
2022/08/06 01:54:26;;;;;;;2.47;2.07;;;14.80;99.90;;;;;;5047398;28;20879;-76
2022/08/06 01:56:56;;;;;;;3.60;2.13;;;14.80;99.90;;;;;;5043008;28;20456;-76
2022/08/06 01:59:31;;;;;;;2.80;2.07;;;14.80;99.90;;;;;;5042314;28;20465;-76
2022/08/06 02:01:59;;;;;;;2.50;2.20;;;14.80;99.90;;;;;;5025921;28;20476;-76
2022/08/06 02:04:30;;;;;;;3.83;2.43;;;14.80;99.90;;;;;;5032970;28;21018;-76
2022/08/06 02:06:58;;;;;;;2.33;2.07;;;14.80;99.90;;;;;;5043101;28;20507;-76
2022/08/06 02:09:27;;;;;;;2.60;2.23;;;14.70;99.90;;;;;;5040139;28;20498;-76
2022/08/06 02:11:58;;;;;;;9.00;2.40;;;14.60;99.90;;;;;;5045195;28;20502;-76
2022/08/06 02:14:30;;;;;;;2.80;2.60;;;14.60;99.90;;;;;;5049792;28;20513;-76
2022/08/06 02:16:59;;;;;;;3.10;2.20;;;14.50;99.90;;;;;;5045667;28;20453;-76
2022/08/06 02:19:29;;;;;;;3.17;1.93;;;14.50;99.90;;;;;;5050178;28;21029;-76
2022/08/06 02:21:57;;;;;;;2.40;1.97;;;14.50;99.90;;;;;;5038875;28;20446;-76
2022/08/06 02:24:26;;;;;;;2.90;2.17;;;14.50;99.90;;;;;;5036838;28;20504;-76
2022/08/06 02:26:53;;;;;;;6.30;2.30;;;14.50;99.90;;;;;;5042974;28;20469;-76
2022/08/06 02:29:21;;;;;;;2.10;1.90;;;14.40;99.90;;;;;;5051766;28;20448;-76
2022/08/06 02:31:49;;;;;;;4.30;2.03;;;14.40;99.90;;;;;;5036673;28;20843;-76
2022/08/06 02:34:16;;;;;;;3.63;2.47;;;14.40;99.90;;;;;;5048024;28;20538;-76
2022/08/06 02:36:46;;;;;;;2.23;2.10;;;14.30;99.90;;;;;;5047063;28;20515;-76
2022/08/06 02:39:22;;;;;;;2.23;2.03;;;14.30;99.90;;;;;;5031530;28;20537;-76
2022/08/06 02:42:00;;;;;;;2.17;1.97;;;14.20;99.90;;;;;;5042613;28;20522;-76
2022/08/06 02:44:37;;;;;;;2.80;2.13;;;14.20;99.90;;;;;;5037175;28;20445;-76
2022/08/06 02:47:09;;;;;;;2.23;2.07;;;14.10;99.90;;;;;;5040286;28;20506;-76
2022/08/06 02:49:40;;;;;;;2.03;1.93;;;14.10;99.90;;;;;;5037696;28;20455;-77
2022/08/06 02:52:16;;;;;;;3.20;2.20;;;14.10;99.90;;;;;;5027226;28;20977;-77
2022/08/06 02:54:46;;;;;;;2.53;1.90;;;14.10;99.90;;;;;;5034890;28;20507;-76
2022/08/06 02:57:17;;;;;;;2.60;2.07;;;14.00;99.90;;;;;;5035100;28;20480;-76
2022/08/06 02:59:47;;;;;;;2.00;1.90;;;14.10;99.90;;;;;;5042110;28;20449;-76
2022/08/06 03:02:17;;;;;;;1.90;1.80;;;14.10;99.90;;;;;;5039021;28;20492;-76
2022/08/06 03:04:49;;;;;;;2.90;2.40;;;14.00;99.90;;;;;;5038196;28;20449;-76
2022/08/06 03:07:17;;;;;;;5.80;2.57;;;14.00;99.90;;;;;;5034374;28;20453;-77
2022/08/06 03:09:48;;;;;;;3.50;1.93;;;13.90;99.90;;;;;;5042165;28;20448;-75
2022/08/06 03:12:17;;;;;;;2.20;2.00;;;13.90;99.90;;;;;;5048946;28;20476;-75
2022/08/06 03:14:45;;;;;;;3.57;2.10;;;13.80;99.90;;;;;;5053540;28;20505;-75
2022/08/06 03:17:16;;;;;;;3.47;2.00;;;13.70;99.90;;;;;;5037704;28;20445;-76
2022/08/06 03:19:45;;;;;;;2.20;2.10;;;13.70;99.90;;;;;;5031102;28;20510;-75
2022/08/06 03:22:12;;;;;;;2.10;2.00;;;13.70;99.90;;;;;;5043285;28;20518;-75
2022/08/06 03:24:41;;;;;;;2.60;2.13;;;13.70;99.90;;;;;;5050162;28;20448;-76
2022/08/06 03:27:11;;;;;;;3.03;1.93;;;13.60;99.90;;;;;;5038705;28;20445;-76
2022/08/06 03:29:39;;;;;;;2.57;2.37;;;13.60;99.90;;;;;;5034311;28;20446;-76
2022/08/06 03:32:07;;;;;;;2.50;2.30;;;13.60;99.90;;;;;;5041355;28;20464;-75
2022/08/06 03:34:36;;;;;;;3.60;2.20;;;13.60;99.90;;;;;;5053830;28;20553;-76
2022/08/06 03:37:04;;;;;;;3.20;1.90;;;13.50;99.90;;;;;;5044544;28;20512;-76
2022/08/06 03:39:33;;;;;;;2.80;1.90;;;13.50;99.90;;;;;;5047884;28;20445;-75
2022/08/06 03:42:00;;;;;;;4.47;2.07;;;13.50;99.90;;;;;;5044120;28;20900;-75
2022/08/06 03:44:27;;;;;;;1.93;1.77;;;13.50;99.90;;;;;;5034256;28;20953;-75
2022/08/06 03:46:57;;;;;;;6.40;2.10;;;13.50;99.90;;;;;;5038419;28;20453;-75
2022/08/06 03:49:28;;;;;;;14.13;2.90;;;13.50;99.90;;;;;;5040935;28;20445;-75
2022/08/06 03:51:58;;;;;;;2.37;2.27;;;13.50;99.90;;;;;;5051629;28;20999;-75
2022/08/06 03:54:27;;;;;;;4.07;2.33;;;13.60;99.90;;;;;;5035744;28;20485;-75
2022/08/06 03:56:58;;;;;;;2.53;1.80;;;13.60;99.90;;;;;;5041944;28;20461;-76
2022/08/06 03:59:27;;;;;;;2.03;1.93;;;13.60;99.90;;;;;;5043913;28;20453;-75
2022/08/06 04:01:56;;;;;;;3.63;2.00;;;13.60;99.90;;;;;;5030841;28;21049;-75
2022/08/06 04:04:24;;;;;;;2.10;1.90;;;13.50;99.90;;;;;;5033437;28;20515;-76
2022/08/06 04:06:52;;;;;;;4.83;2.13;;;13.50;99.90;;;;;;5041380;28;20487;-76
2022/08/06 04:09:21;;;;;;;3.83;2.07;;;13.50;99.90;;;;;;5044243;28;20599;-75
2022/08/06 04:11:49;;;;;;;3.83;2.20;;;13.50;99.90;;;;;;5033744;28;20527;-75
2022/08/06 04:14:16;;;;;;;3.00;2.70;;;13.40;99.90;;;;;;5045238;28;20488;-76
2022/08/06 04:16:43;;;;;;;2.57;1.97;;;13.50;99.90;;;;;;5040244;28;20449;-75
2022/08/06 04:19:11;;;;;;;2.37;2.00;;;13.40;99.90;;;;;;5047960;28;20471;-76
2022/08/06 04:21:39;;;;;;;4.20;2.00;;;13.40;99.90;;;;;;5036866;28;20461;-76
2022/08/06 04:24:06;;;;;;;5.63;2.00;;;13.40;99.90;;;;;;5043088;28;21018;-76
2022/08/06 04:26:35;;;;;;;2.53;2.33;;;13.40;99.90;;;;;;5038724;28;20479;-73
2022/08/06 04:29:03;;;;;;;4.00;2.20;;;13.50;99.90;;;;;;5032870;28;20511;-74
2022/08/06 04:31:31;;;;;;;1.93;1.83;;;13.80;99.90;;;;;;5033608;28;20462;-74
2022/08/06 04:33:59;;;;;;;3.07;2.00;;;14.00;99.90;;;;;;5036928;28;20476;-74
2022/08/06 04:36:26;;;;;;;6.80;2.40;;;14.20;99.90;;;;;;5038943;28;20445;-74
2022/08/06 04:38:53;;;;;;;2.77;2.10;;;14.30;99.90;;;;;;5038332;28;20976;-74
2022/08/06 04:41:20;;;;;;;3.70;1.90;;;14.40;99.90;;;;;;5036907;28;20473;-74
2022/08/06 04:43:50;;;;;;;1.90;1.80;;;14.40;99.90;;;;;;5039866;28;21063;-74
2022/08/06 04:46:17;;;;;;;3.63;2.30;;;14.30;99.90;;;;;;5037730;28;20449;-74
2022/08/06 04:48:44;;;;;;;2.40;2.20;;;14.30;99.90;;;;;;5045252;28;20950;-75
2022/08/06 04:51:12;;;;;;;2.33;2.13;;;14.30;99.90;;;;;;5031970;28;20988;-74
2022/08/06 04:53:40;;;;;;;2.80;1.80;;;14.30;99.90;;;;;;5047897;28;20488;-74
2022/08/06 04:56:08;;;;;;;2.90;2.10;;;14.30;99.90;;;;;;5044058;28;20449;-74
2022/08/06 04:58:35;;;;;;;2.17;2.03;;;14.20;99.90;;;;;;5034249;28;20512;-74
2022/08/06 05:01:03;;;;;;;1.90;1.80;;;14.50;99.90;;;;;;5031949;28;20845;-74
2022/08/06 05:03:30;;;;;;;3.40;1.80;;;14.70;99.90;;;;;;5042489;28;20445;-74
2022/08/06 05:06:04;;;;;;;1.97;1.87;;;14.90;99.90;;;;;;5044582;28;20453;-73
2022/08/06 05:08:34;;;;;;;2.20;2.00;;;15.10;99.90;;;;;;5032209;28;20453;-73
2022/08/06 05:11:05;;;;;;;2.30;1.80;;;15.30;99.90;;;;;;5029280;28;20534;-73
2022/08/06 05:13:38;;;;;;;1.87;1.73;;;15.60;99.90;;;;;;5043985;28;20523;-74
2022/08/06 05:16:10;;;;;;;2.73;1.90;;;15.80;99.90;;;;;;5028522;28;20504;-73
2022/08/06 05:18:40;;;;;;;2.17;2.00;;;15.90;99.90;;;;;;5034329;28;20507;-74
2022/08/06 05:21:09;;;;;;;2.00;1.90;;;16.00;99.90;;;;;;5049235;28;20510;-74
2022/08/06 05:23:41;;;;;;;3.73;1.67;;;16.20;99.90;;;;;;5042239;28;20445;-73
2022/08/06 05:26:08;;;;;;;5.10;2.00;;;16.30;99.90;;;;;;5037908;28;20448;-73
2022/08/06 05:28:35;;;;;;;2.07;1.80;;;16.30;99.90;;;;;;5036836;28;20457;-74
2022/08/06 05:31:01;;;;;;;2.80;2.10;;;16.30;99.90;;;;;;5038746;28;20469;-74
2022/08/06 05:33:33;;;;;;;3.27;1.90;;;16.40;99.90;;;;;;5043105;28;20484;-73
2022/08/06 05:36:01;;;;;;;1.80;1.70;;;16.50;99.90;;;;;;5036926;28;20453;-74
2022/08/06 05:38:28;;;;;;;10.27;2.83;;;16.70;99.90;;;;;;5034333;28;20502;-73
2022/08/06 05:40:56;;;;;;;4.67;2.10;;;17.00;99.90;;;;;;5042304;28;20939;-73
2022/08/06 05:43:23;;;;;;;2.20;2.10;;;17.00;99.90;;;;;;5048390;28;20435;-73
2022/08/06 05:45:53;;;;;;;9.90;2.20;;;17.20;99.90;;;;;;5044270;28;20456;-74
2022/08/06 05:48:21;;;;;;;4.00;1.97;;;17.50;99.90;;;;;;5035912;28;20453;-74
2022/08/06 05:50:54;;;;;;;2.27;1.90;;;17.50;99.90;;;;;;5033999;28;20515;-73
2022/08/06 05:53:29;;;;;;;6.03;1.97;;;17.40;99.90;;;;;;5040754;28;20451;-73
2022/08/06 05:55:58;;;;;;;2.03;1.70;;;17.30;99.90;;;;;;5038107;28;20850;-73
2022/08/06 05:58:29;;;;;;;3.83;2.13;;;17.30;99.90;;;;;;5048465;28;20449;-73
2022/08/06 06:00:59;;;;;;;2.50;2.10;;;17.20;99.90;;;;;;5031610;28;20497;-72
2022/08/06 06:03:26;;;;;;;5.63;2.23;;;17.30;99.90;;;;;;5031148;28;20499;-74
2022/08/06 06:05:55;;;;;;;2.50;2.07;;;17.20;99.90;;;;;;5033354;28;20558;-73
2022/08/06 06:08:22;;;;;;;5.30;2.20;;;17.20;99.90;;;;;;5031675;28;20453;-75
2022/08/06 06:10:49;;;;;;;5.73;2.00;;;17.30;99.90;;;;;;5030706;28;20443;-75
2022/08/06 06:13:16;;;;;;;2.10;1.90;;;17.50;99.90;;;;;;5036989;28;20485;-75
2022/08/06 06:15:48;;;;;;;2.83;2.53;;;17.80;99.90;;;;;;5043358;28;20454;-72
2022/08/06 06:18:28;;;;;;;7.47;1.90;;;18.30;99.90;;;;;;5033978;28;20992;-71
2022/08/06 06:21:04;;;;;;;2.13;1.87;;;18.70;99.90;;;;;;5034493;28;20488;-71
2022/08/06 06:23:36;;;;;;;4.70;1.80;;;19.00;99.90;;;;;;5031460;28;20428;-72
2022/08/06 06:26:14;;;;;;;3.73;2.07;;;19.30;99.90;;;;;;5043946;28;20480;-72
2022/08/06 06:28:55;;;;;;;2.73;1.73;;;19.50;99.90;;;;;;5042803;28;20478;-72
2022/08/06 06:31:29;;;;;;;1.93;1.83;;;19.50;99.90;;;;;;5046810;28;21025;-74
2022/08/06 06:34:03;;;;;;;3.00;1.77;;;19.40;99.90;;;;;;5039769;28;20983;-70
2022/08/06 06:36:37;;;;;;;6.07;2.07;;;19.30;99.90;;;;;;5033973;28;20449;-71
2022/08/06 06:39:07;;;;;;;2.10;1.60;;;19.40;99.90;;;;;;5036597;28;20424;-71
2022/08/06 06:41:40;;;;;;;2.10;1.90;;;19.40;99.90;;;;;;5029945;28;20469;-71
2022/08/06 06:44:12;;;;;;;3.87;2.10;;;19.40;99.90;;;;;;5028444;28;20424;-72
2022/08/06 06:46:46;;;;;;;2.90;1.83;;;19.40;99.90;;;;;;5033031;28;21053;-74
2022/08/06 06:49:18;;;;;;;2.30;2.07;;;19.50;99.90;;;;;;5031485;28;20460;-71
2022/08/06 06:51:55;;;;;;;3.83;2.30;;;19.40;99.90;;;;;;5031334;28;20468;-71
2022/08/06 06:54:28;;;;;;;6.00;2.13;;;19.30;99.90;;;;;;5030484;28;20485;-72
2022/08/06 06:56:57;;;;;;;7.73;2.63;;;19.30;99.90;;;;;;5031908;28;20424;-71
2022/08/06 06:59:30;;;;;;;3.73;1.93;;;19.20;99.90;;;;;;5038273;28;20916;-71
2022/08/06 07:01:58;;;;;;;3.20;2.43;;;19.20;99.90;;;;;;5033614;28;20477;-72
2022/08/06 07:04:27;;;;;;;4.47;2.80;;;19.40;99.90;;;;;;5042619;28;20416;-71
2022/08/06 07:06:56;;;;;;;13.40;2.53;;;19.50;99.90;;;;;;5035656;28;20424;-73
2022/08/06 07:09:26;;;;;;;4.47;2.47;;;19.60;99.90;;;;;;5034424;28;20984;-72
2022/08/06 07:11:56;;;;;;;5.00;2.17;;;19.60;99.90;;;;;;5049067;28;20485;-74
2022/08/06 07:14:24;;;;;;;2.20;2.00;;;19.70;99.90;;;;;;4964208;28;20447;-73
2022/08/06 07:16:55;;;;;;;2.00;1.90;;;19.70;99.90;;;;;;5018304;28;20843;-73
2022/08/06 07:19:24;;;;;;;1.70;1.60;;;19.90;99.90;;;;;;5016499;28;20955;-74
2022/08/06 07:21:52;;;;;;;2.07;1.77;;;20.10;99.90;;;;;;5020488;28;20494;-74
2022/08/06 07:24:23;;;;;;;3.27;1.67;;;20.40;99.90;;;;;;5018228;28;20417;-74
2022/08/06 07:26:52;;;;;;;3.77;1.87;;;20.40;99.90;;;;;;5018533;28;20986;-74
2022/08/06 07:29:20;;;;;;;2.30;1.70;;;20.70;99.90;;;;;;5022946;28;20445;-74
2022/08/06 07:31:48;;;;;;;3.20;1.90;;;21.00;99.90;;;;;;5025940;28;20441;-75
2022/08/06 07:34:16;;;;;;;2.00;1.60;;;21.30;99.90;;;;;;5017377;28;20510;-75
2022/08/06 07:36:45;;;;;;;3.50;1.83;;;21.50;99.90;;;;;;5030869;28;20481;-73
2022/08/06 07:39:18;;;;;;;2.63;1.50;;;21.50;99.90;;;;;;5017395;28;20453;-74
2022/08/06 07:41:48;;;;;;;4.40;1.80;;;21.50;99.90;;;;;;5014617;28;20486;-75
2022/08/06 07:44:15;;;;;;;1.70;1.50;;;21.50;99.90;;;;;;5026344;28;20499;-74
2022/08/06 07:46:48;;;;;;;2.67;1.47;;;21.70;99.90;;;;;;5023340;28;20477;-76
2022/08/06 07:49:15;;;;;;;1.73;1.63;;;22.10;99.90;;;;;;5024595;28;20454;-76
2022/08/06 07:51:46;;;;;;;5.47;2.03;;;22.20;99.90;;;;;;5013341;28;20504;-76
2022/08/06 07:54:13;;;;;;;3.50;1.70;;;22.20;99.90;;;;;;5024043;28;20534;-78
2022/08/06 07:56:42;;;;;;;4.50;1.70;;;21.90;99.90;;;;;;5014786;28;20473;-75
2022/08/06 07:59:11;;;;;;;3.10;1.70;;;21.80;99.90;;;;;;5032444;28;20499;-75
2022/08/06 08:01:39;;;;;;;3.97;2.30;;;21.80;99.90;;;;;;5033116;28;20473;-77
2022/08/06 08:06:52;;;;;;;5.50;2.50;;;21.20;99.90;;;;;;5033537;28;20421;-76
2022/08/06 08:09:21;;;;;;;3.70;1.93;;;21.00;99.90;;;;;;5030190;28;20460;-75
2022/08/06 08:11:49;;;;;;;2.90;1.50;;;21.10;99.90;;;;;;5013455;28;20485;-77
2022/08/06 08:14:19;;;;;;;2.50;2.30;;;21.20;99.90;;;;;;5028689;28;20837;-76
2022/08/06 08:16:47;;;;;;;5.00;3.13;;;21.00;99.90;;;;;;5018149;28;20496;-75
2022/08/06 08:19:26;;;;;;;3.20;2.23;;;20.70;99.90;;;;;;5024591;28;20508;-77
2022/08/06 08:21:53;;;;;;;7.10;2.60;;;20.60;99.90;;;;;;5013537;28;20478;-75
2022/08/06 08:24:20;;;;;;;1.63;1.53;;;21.00;99.90;;;;;;5023665;28;20454;-75
2022/08/06 08:26:46;;;;;;;3.43;2.03;;;21.10;99.90;;;;;;5013715;28;20487;-74
2022/08/06 08:29:13;;;;;;;3.17;1.67;;;21.00;99.90;;;;;;5023104;28;20458;-76
2022/08/06 08:31:41;;;;;;;19.80;2.50;;;20.90;99.90;;;;;;5018198;28;20497;-76
2022/08/06 08:34:08;;;;;;;5.47;1.80;;;20.80;99.90;;;;;;5015428;28;20544;-75
2022/08/06 08:36:35;;;;;;;17.53;2.30;;;21.00;99.90;;;;;;5020544;28;20453;-76
2022/08/06 08:39:01;;;;;;;6.57;1.70;;;21.30;99.90;;;;;;5024230;28;20943;-75
2022/08/06 08:41:34;;;;;;;3.13;1.50;;;21.70;99.90;;;;;;5012426;28;21324;-75
2022/08/06 08:44:04;;;;;;;5.53;1.30;;;22.00;99.90;;;;;;5013065;28;20433;-75
2022/08/06 08:46:33;;;;;;;6.53;1.60;;;22.10;99.90;;;;;;5019650;28;20925;-75
2022/08/06 08:49:04;;;;;;;3.00;1.47;;;22.10;99.90;;;;;;5014290;28;20481;-76
2022/08/06 08:51:32;;;;;;;13.67;2.00;;;22.30;99.90;;;;;;5019360;28;20508;-75
2022/08/06 08:54:02;;;;;;;3.50;1.50;;;22.50;99.90;;;;;;5014330;28;20477;-76
2022/08/06 08:56:28;;;;;;;2.80;1.60;;;22.80;99.90;;;;;;5016821;28;20450;-74
2022/08/06 08:58:56;;;;;;;1.43;1.10;;;23.00;99.90;;;;;;5020727;28;20519;-75
2022/08/06 09:01:22;;;;;;;2.80;1.20;;;23.30;99.90;;;;;;5030651;28;20532;-77
2022/08/06 09:03:49;;;;;;;1.40;1.30;;;23.20;99.90;;;;;;5017166;28;20496;-75
2022/08/06 09:06:19;;;;;;;3.67;1.53;;;23.10;99.90;;;;;;5014292;28;20455;-76
2022/08/06 09:08:46;;;;;;;2.63;1.30;;;23.00;99.90;;;;;;5021514;28;20870;-75
2022/08/06 09:11:13;;;;;;;3.13;1.47;;;22.90;99.90;;;;;;5022055;28;20474;-76
2022/08/06 09:13:40;;;;;;;1.47;1.20;;;22.60;99.90;;;;;;5022757;28;20898;-75
2022/08/06 09:16:07;;;;;;;6.67;1.57;;;22.10;99.90;;;;;;5022457;28;20489;-74
2022/08/06 09:18:34;;;;;;;2.60;1.37;;;22.00;99.90;;;;;;5026174;28;20503;-76
2022/08/06 09:21:01;;;;;;;2.10;1.70;;;22.00;99.90;;;;;;5025230;28;20478;-75
2022/08/06 09:23:29;;;;;;;4.13;1.33;;;22.20;99.90;;;;;;5015022;28;20456;-75
2022/08/06 09:25:56;;;;;;;3.93;1.70;;;22.20;99.90;;;;;;5015149;28;20446;-75
2022/08/06 09:28:35;;;;;;;7.60;1.40;;;22.20;99.90;;;;;;5028124;28;20460;-76
2022/08/06 09:31:05;;;;;;;3.23;1.93;;;22.10;99.90;;;;;;5014982;28;20492;-75
2022/08/06 09:33:33;;;;;;;6.67;1.60;;;22.00;99.90;;;;;;5021992;28;20489;-75
2022/08/06 09:36:02;;;;;;;6.80;2.00;;;22.10;99.90;;;;;;5023165;28;20485;-75
2022/08/06 09:38:30;;;;;;;2.20;1.50;;;22.30;99.90;;;;;;5023212;28;21039;-75
2022/08/06 09:41:08;;;;;;;3.73;1.37;;;22.40;99.90;;;;;;5021917;28;20469;-73
2022/08/06 09:43:35;;;;;;;2.60;1.33;;;22.90;99.90;;;;;;5018788;28;20510;-74
2022/08/06 09:46:02;;;;;;;5.33;1.63;;;23.20;99.90;;;;;;5018633;28;20938;-76
2022/08/06 09:48:29;;;;;;;2.70;1.27;;;23.50;99.90;;;;;;5025315;28;21177;-75
2022/08/06 09:50:56;;;;;;;2.50;1.47;;;23.80;99.90;;;;;;5024823;28;20848;-76
2022/08/06 09:53:23;;;;;;;4.80;1.40;;;23.90;99.90;;;;;;5019194;28;20463;-75
2022/08/06 09:55:52;;;;;;;1.67;1.40;;;23.90;99.90;;;;;;5022237;28;21005;-75
2022/08/06 09:58:30;;;;;;;2.13;1.43;;;24.00;99.90;;;;;;5024642;28;20454;-75
2022/08/06 10:00:57;;;;;;;1.40;1.30;;;24.00;99.90;;;;;;5022694;28;20470;-76
2022/08/06 10:03:24;;;;;;;5.13;1.27;;;24.10;99.90;;;;;;5023562;28;20953;-75
2022/08/06 10:06:07;;;;;;;2.53;1.50;;;24.20;99.90;;;;;;5018989;28;21044;-75
2022/08/06 10:08:33;;;;;;;2.93;1.40;;;24.20;99.90;;;;;;5018399;28;20450;-77
2022/08/06 10:11:03;;;;;;;2.37;1.33;;;24.10;99.90;;;;;;5022137;28;20474;-77
2022/08/06 10:13:31;;;;;;;1.30;1.20;;;24.00;99.90;;;;;;5017091;28;20453;-76
2022/08/06 10:16:00;;;;;;;5.57;1.60;;;24.10;99.90;;;;;;5020288;28;21076;-76
2022/08/06 10:18:32;;;;;;;2.63;1.20;;;24.10;99.90;;;;;;5019953;28;20462;-76
2022/08/06 10:21:04;;;;;;;3.67;1.40;;;24.40;99.90;;;;;;5022791;28;20485;-72
2022/08/06 10:23:33;;;;;;;2.50;1.23;;;24.70;99.90;;;;;;5018509;28;20478;-75
2022/08/06 10:26:03;;;;;;;4.27;1.40;;;25.00;99.40;;;;;;4997268;28;20567;-74
2022/08/06 10:28:32;;;;;;;2.23;1.17;;;24.90;96.30;;;;;;5032743;28;21200;-74
2022/08/06 10:31:01;;;;;;;3.43;1.67;;;24.60;97.40;;;;;;5035332;28;20474;-74
2022/08/06 10:33:31;;;;;;;2.83;1.40;;;24.80;97.60;;;;;;5035717;28;21043;-74
2022/08/06 10:36:03;;;;;;;1.63;1.20;;;24.90;98.20;;;;;;5039349;28;20874;-74
2022/08/06 10:38:34;;;;;;;1.53;1.20;;;25.10;96.90;;;;;;5034404;28;20953;-73
2022/08/06 10:41:07;;;;;;;1.33;1.23;;;25.10;95.80;;;;;;5041032;28;20522;-73
2022/08/06 10:43:36;;;;;;;2.60;1.23;;;25.10;96.40;;;;;;5044558;28;20879;-76
2022/08/06 10:46:04;;;;;;;1.20;1.10;;;25.00;97.40;;;;;;5041033;28;20967;-76
2022/08/06 10:48:31;;;;;;;2.67;1.30;;;25.10;96.80;;;;;;5037311;28;20457;-74
2022/08/06 10:50:58;;;;;;;2.33;1.13;;;25.20;97.10;;;;;;5038618;28;20470;-75
2022/08/06 10:53:25;;;;;;;1.27;1.17;;;25.50;96.80;;;;;;5037146;28;20453;-75
2022/08/06 10:55:52;;;;;;;2.80;1.13;;;25.70;96.40;;;;;;5045296;28;20496;-74
2022/08/06 10:58:21;;;;;;;4.00;1.30;;;25.90;96.30;;;;;;5043447;28;20940;-74
2022/08/06 11:00:48;;;;;;;1.93;0.90;;;25.40;96.00;;;;;;5039032;28;21076;-74
2022/08/06 11:03:19;;;;;;;1.60;1.17;;;25.40;97.10;;;;;;5041225;28;21192;-72
2022/08/06 11:05:56;;;;;;;5.47;1.30;;;25.70;96.10;;;;;;5039633;28;20445;-73
2022/08/06 11:08:51;;;;;;;3.37;1.50;;;25.90;95.80;;;;;;5040103;28;20456;-74
2022/08/06 11:11:29;;;;;;;1.40;1.30;;;26.10;94.90;;;;;;5040671;28;20473;-73
2022/08/06 11:14:03;;;;;;;2.20;1.50;;;26.10;94.50;;;;;;5041932;28;20945;-72
2022/08/06 11:16:31;;;;;;;2.30;1.67;;;26.10;95.40;;;;;;5041049;28;20483;-73
2022/08/06 11:18:59;;;;;;;2.17;1.70;;;26.20;95.60;;;;;;5042090;28;20484;-74
2022/08/06 11:21:37;;;;;;;3.83;1.40;;;26.20;93.50;;;;;;5040719;28;20563;-73
2022/08/06 11:24:05;;;;;;;4.90;1.30;;;26.20;94.20;;;;;;5036731;28;20452;-72
2022/08/06 11:26:34;;;;;;;2.70;1.13;;;26.30;93.80;;;;;;5038943;28;20445;-73
2022/08/06 11:29:03;;;;;;;2.73;1.10;;;26.00;93.70;;;;;;5035363;28;20530;-73
2022/08/06 11:31:39;;;;;;;3.90;1.30;;;26.00;93.90;;;;;;5040403;28;20461;-73
2022/08/06 11:34:13;;;;;;;4.30;1.10;;;26.30;94.10;;;;;;5036512;28;20452;-73
2022/08/06 11:36:52;;;;;;;1.40;1.07;;;26.40;94.40;;;;;;5041674;28;20475;-73
2022/08/06 11:39:21;;;;;;;2.70;2.00;;;26.60;93.80;;;;;;5040764;28;20800;-73
2022/08/06 11:41:53;;;;;;;1.63;1.20;;;26.40;92.70;;;;;;5043341;28;20523;-73
2022/08/06 11:44:23;;;;;;;1.30;1.20;;;26.50;93.60;;;;;;5042016;28;20457;-73
2022/08/06 11:47:05;;;;;;;3.63;1.30;;;26.30;92.90;;;;;;5041726;28;21005;-73
2022/08/06 11:49:37;;;;;;;5.03;1.30;;;26.00;93.60;;;;;;5037699;28;20449;-73
2022/08/06 11:52:04;;;;;;;3.53;1.20;;;25.90;93.50;;;;;;5040458;28;20472;-73
2022/08/06 11:54:32;;;;;;;1.40;1.10;;;25.90;92.80;;;;;;5039984;28;20521;-74
2022/08/06 11:57:21;;;;;;;1.47;1.37;;;25.90;92.20;;;;;;5040948;28;20853;-74
2022/08/06 12:00:07;;;;;;;1.90;1.37;;;26.30;92.40;;;;;;5045278;28;20499;-73
2022/08/06 12:02:57;;;;;;;2.20;1.60;;;26.40;91.80;;;;;;5039756;28;20453;-74
2022/08/06 12:05:38;;;;;;;3.53;2.73;;;26.70;91.10;;;;;;5038720;28;20442;-73
2022/08/06 12:08:26;;;;;;;1.53;1.40;;;27.00;90.10;;;;;;5038714;28;20457;-75
2022/08/06 12:11:27;;;;;;;1.77;1.20;;;27.10;88.10;;;;;;5043216;28;20485;-75
2022/08/06 12:13:55;;;;;;;1.30;1.10;;;27.10;87.40;;;;;;5039020;28;20590;-75
2022/08/06 12:16:32;;;;;;;2.17;1.50;;;26.80;88.50;;;;;;5041647;28;20538;-75
2022/08/06 12:18:58;;;;;;;1.43;1.30;;;27.00;90.30;;;;;;5034789;28;20480;-75
2022/08/06 12:21:25;;;;;;;1.37;1.27;;;27.30;90.30;;;;;;5045811;28;21000;-76
2022/08/06 12:23:53;;;;;;;1.43;1.13;;;27.20;88.90;;;;;;5036973;28;20489;-75
2022/08/06 12:26:21;;;;;;;1.30;0.87;;;27.00;89.90;;;;;;5040074;28;20454;-73
2022/08/06 12:28:48;;;;;;;1.87;1.17;;;26.60;91.10;;;;;;5036918;28;20453;-73
2022/08/06 12:31:31;;;;;;;1.50;1.20;;;26.20;90.40;;;;;;5040009;28;20551;-74
2022/08/06 12:33:57;;;;;;;1.17;1.07;;;25.70;90.80;;;;;;5034881;28;20460;-74
2022/08/06 12:36:28;;;;;;;1.20;1.10;;;25.40;91.20;;;;;;5037819;28;20484;-75
2022/08/06 12:38:57;;;;;;;3.20;1.07;;;25.30;91.30;;;;;;5039074;28;20448;-75
2022/08/06 12:41:23;;;;;;;2.63;1.17;;;25.50;90.40;;;;;;5040978;28;20485;-76
2022/08/06 12:43:50;;;;;;;2.50;1.23;;;25.70;90.30;;;;;;5041162;28;20453;-76
2022/08/06 12:46:16;;;;;;;1.50;1.20;;;25.90;89.60;;;;;;5038485;28;20453;-75
2022/08/06 12:48:49;;;;;;;3.80;1.33;;;26.20;90.20;;;;;;5035459;28;20952;-75
2022/08/06 12:51:16;;;;;;;2.93;1.20;;;26.50;90.00;;;;;;5040273;28;20481;-75
2022/08/06 12:53:48;;;;;;;1.27;1.03;;;26.80;88.50;;;;;;5041996;28;20444;-74
2022/08/06 12:56:15;;;;;;;5.37;1.13;;;26.70;87.90;;;;;;5040645;28;20530;-74
2022/08/06 12:58:43;;;;;;;1.43;1.20;;;26.70;87.40;;;;;;5042020;28;20452;-74
2022/08/06 13:01:13;;;;;;;2.10;1.07;;;26.60;87.50;;;;;;5038681;28;20468;-74